Time;durP1;ratioP1;P1;durP2;ratioP2;P2;SDS_P1;SDS_P2;PMS_P1;PMS_P2;Temp;Humidity;BMP_temperature;BMP_pressure;BME280_temperature;BME280_humidity;BME280_pressure;Samples;Min_cycle;Max_cycle;Signal;HPM_P1;HPM_P2
2022/10/30 00:00:07;;;;;;;24.80;10.07;;;14.20;99.90;;;;;;5095575;28;20055;-77
2022/10/30 00:02:33;;;;;;;22.50;10.48;;;14.20;99.90;;;;;;5113308;28;20062;-78
2022/10/30 00:04:58;;;;;;;18.63;9.43;;;14.20;99.90;;;;;;5113511;28;20044;-78
2022/10/30 00:07:24;;;;;;;24.17;10.68;;;14.20;99.90;;;;;;5112697;28;20035;-77
2022/10/30 00:09:50;;;;;;;26.13;9.80;;;14.20;99.90;;;;;;5113320;28;20039;-77
2022/10/30 00:12:15;;;;;;;27.95;11.65;;;14.50;99.90;;;;;;5113060;28;20050;-78
2022/10/30 00:14:41;;;;;;;33.85;11.52;;;14.40;99.90;;;;;;5113013;28;20112;-77
2022/10/30 00:17:06;;;;;;;22.63;10.60;;;14.20;99.90;;;;;;5092765;28;20379;-76
2022/10/30 00:19:32;;;;;;;22.25;10.82;;;14.40;99.90;;;;;;5113377;28;20494;-77
2022/10/30 00:22:01;;;;;;;31.92;10.65;;;14.30;99.90;;;;;;5112936;28;20047;-77
2022/10/30 00:24:27;;;;;;;20.55;10.63;;;14.10;99.90;;;;;;5112935;28;20083;-77
2022/10/30 00:26:53;;;;;;;23.45;10.85;;;14.10;99.90;;;;;;5113055;28;20395;-76
2022/10/30 00:29:19;;;;;;;25.88;10.90;;;14.30;99.90;;;;;;5112995;28;20114;-78
2022/10/30 00:31:45;;;;;;;26.85;10.90;;;14.00;99.90;;;;;;5112729;28;20043;-78
2022/10/30 00:34:10;;;;;;;22.48;9.88;;;14.50;99.90;;;;;;5113118;28;20190;-78
2022/10/30 00:36:36;;;;;;;24.67;10.82;;;14.00;99.90;;;;;;5112790;28;20473;-78
2022/10/30 00:39:02;;;;;;;20.15;10.23;;;14.00;99.90;;;;;;5112513;28;20122;-77
2022/10/30 00:41:28;;;;;;;27.90;11.45;;;14.00;99.90;;;;;;5113157;28;20052;-77
2022/10/30 00:43:54;;;;;;;26.10;11.20;;;14.30;99.90;;;;;;5105458;28;20376;-78
2022/10/30 00:46:38;;;;;;;24.50;10.93;;;13.90;99.90;;;;;;5092560;28;20051;-78
2022/10/30 00:49:13;;;;;;;27.08;10.73;;;14.00;99.90;;;;;;5092638;28;20047;-77
2022/10/30 00:51:47;;;;;;;18.35;10.05;;;14.10;99.90;;;;;;5092165;28;20123;-77
2022/10/30 00:54:16;;;;;;;22.38;10.20;;;14.00;99.90;;;;;;5092180;28;20048;-77
2022/10/30 00:56:43;;;;;;;27.60;11.38;;;13.90;99.90;;;;;;5091813;28;20413;-78
2022/10/30 00:59:12;;;;;;;27.23;10.38;;;13.90;99.90;;;;;;5074657;28;20126;-77
2022/10/30 01:01:41;;;;;;;24.52;10.73;;;13.90;99.90;;;;;;5092407;28;20407;-77
2022/10/30 01:04:07;;;;;;;30.90;10.65;;;13.90;99.90;;;;;;5092091;28;20048;-78
2022/10/30 01:06:35;;;;;;;24.35;11.15;;;14.30;99.90;;;;;;5091636;28;20698;-77
2022/10/30 01:09:02;;;;;;;24.30;11.25;;;14.30;99.90;;;;;;5091593;28;20054;-78
2022/10/30 01:11:28;;;;;;;31.42;10.55;;;13.80;99.90;;;;;;5091823;28;20101;-77
2022/10/30 01:13:58;;;;;;;22.33;9.63;;;14.10;99.90;;;;;;5092079;28;20035;-77
2022/10/30 01:16:41;;;;;;;27.55;10.73;;;13.80;99.90;;;;;;5092048;28;20087;-76
2022/10/30 01:19:10;;;;;;;25.92;11.13;;;13.80;99.90;;;;;;5091662;28;20471;-77
2022/10/30 01:22:01;;;;;;;23.60;10.60;;;13.80;99.90;;;;;;5091853;28;20044;-77
2022/10/30 01:24:48;;;;;;;30.13;10.65;;;13.70;99.90;;;;;;5091759;28;20036;-77
2022/10/30 01:27:19;;;;;;;25.65;10.63;;;13.70;99.90;;;;;;5091607;28;20109;-77
2022/10/30 01:30:09;;;;;;;25.25;10.52;;;13.70;99.90;;;;;;5091353;28;20517;-77
2022/10/30 01:32:44;;;;;;;24.13;10.35;;;13.70;99.90;;;;;;5091474;28;20407;-77
2022/10/30 01:35:30;;;;;;;23.58;10.65;;;14.10;99.90;;;;;;5091136;28;20055;-77
2022/10/30 01:38:01;;;;;;;27.33;11.05;;;13.60;99.90;;;;;;5090983;28;20044;-77
2022/10/30 01:40:27;;;;;;;31.90;11.05;;;13.60;99.90;;;;;;5090970;28;20133;-77
2022/10/30 01:42:57;;;;;;;29.50;10.65;;;13.60;99.90;;;;;;5091077;28;20083;-78
2022/10/30 01:45:46;;;;;;;25.30;11.27;;;13.60;99.90;;;;;;5091139;28;20040;-77
2022/10/30 01:48:39;;;;;;;23.25;10.65;;;13.60;99.90;;;;;;5091081;28;20040;-76
2022/10/30 01:51:20;;;;;;;22.40;10.50;;;13.60;99.90;;;;;;5090666;28;20134;-77
2022/10/30 01:53:49;;;;;;;26.70;10.40;;;13.60;99.90;;;;;;5090828;28;20104;-77
2022/10/30 01:56:29;;;;;;;27.15;10.88;;;13.60;99.90;;;;;;5090686;28;20059;-77
2022/10/30 01:59:19;;;;;;;21.13;10.35;;;13.50;99.90;;;;;;5090584;28;20052;-76
2022/10/30 02:01:45;;;;;;;27.90;10.20;;;13.50;99.90;;;;;;5090551;28;20470;-77
2022/10/30 02:04:12;;;;;;;29.45;11.65;;;13.50;99.90;;;;;;5090420;28;20127;-76
2022/10/30 02:06:39;;;;;;;26.27;10.70;;;13.50;99.90;;;;;;5090779;28;20414;-78
2022/10/30 02:09:05;;;;;;;22.75;10.55;;;13.40;99.90;;;;;;5090582;28;20054;-77
2022/10/30 02:11:36;;;;;;;18.33;10.43;;;13.50;99.90;;;;;;5090685;28;20046;-76
2022/10/30 02:14:08;;;;;;;22.60;10.43;;;13.50;99.90;;;;;;5095871;28;20062;-76
2022/10/30 02:16:41;;;;;;;26.45;11.18;;;13.40;99.90;;;;;;5110568;28;20051;-78
2022/10/30 02:19:07;;;;;;;25.48;10.57;;;13.40;99.90;;;;;;5110726;28;20048;-77
2022/10/30 02:21:35;;;;;;;25.23;10.68;;;13.60;99.90;;;;;;5110908;28;20043;-77
2022/10/30 02:24:01;;;;;;;25.27;10.32;;;13.30;99.90;;;;;;5110444;28;20458;-77
2022/10/30 02:26:27;;;;;;;20.98;11.45;;;13.40;99.90;;;;;;5092236;28;20044;-77
2022/10/30 02:28:52;;;;;;;20.45;10.43;;;13.30;99.90;;;;;;5108832;28;20039;-77
2022/10/30 02:31:18;;;;;;;26.63;11.10;;;13.30;99.90;;;;;;5110370;28;20522;-78
2022/10/30 02:33:47;;;;;;;20.55;11.48;;;13.30;99.90;;;;;;5110653;28;20043;-77
2022/10/30 02:36:16;;;;;;;21.15;10.23;;;13.30;99.90;;;;;;5110514;28;20491;-77
2022/10/30 02:38:43;;;;;;;28.25;11.35;;;13.30;99.90;;;;;;5110496;28;20406;-77
2022/10/30 02:41:10;;;;;;;32.05;11.90;;;13.30;99.90;;;;;;5110238;28;20075;-76
2022/10/30 02:43:36;;;;;;;31.88;12.50;;;13.20;99.90;;;;;;5109939;28;20092;-77
2022/10/30 02:46:01;;;;;;;25.27;11.70;;;13.20;99.90;;;;;;5110205;28;20036;-77
2022/10/30 02:48:29;;;;;;;26.33;11.05;;;13.20;99.90;;;;;;5092257;28;20059;-77
2022/10/30 02:50:59;;;;;;;24.40;10.90;;;13.20;99.90;;;;;;5110401;28;20048;-76
2022/10/30 02:53:25;;;;;;;22.10;10.85;;;13.20;99.90;;;;;;5110345;28;20092;-76
2022/10/30 02:55:50;;;;;;;21.42;11.30;;;13.20;99.90;;;;;;5109564;28;20056;-77
2022/10/30 02:58:16;;;;;;;21.83;10.57;;;13.20;99.90;;;;;;5110326;28;20586;-77
2022/10/30 03:00:42;;;;;;;26.17;11.20;;;13.10;99.90;;;;;;5106604;28;20044;-75
2022/10/30 03:03:07;;;;;;;28.55;11.60;;;13.20;99.90;;;;;;5093101;28;20047;-76
2022/10/30 03:05:33;;;;;;;25.52;11.98;;;13.20;99.90;;;;;;5092519;28;20050;-77
2022/10/30 03:07:58;;;;;;;25.92;10.45;;;13.10;99.90;;;;;;5096648;28;20142;-76
2022/10/30 03:10:24;;;;;;;27.52;10.55;;;13.20;99.90;;;;;;5096149;28;20040;-77
2022/10/30 03:12:50;;;;;;;30.23;12.10;;;13.10;99.90;;;;;;5114555;28;20039;-77
2022/10/30 03:15:32;;;;;;;28.75;11.02;;;13.10;99.90;;;;;;5108861;28;20042;-78
2022/10/30 03:17:57;;;;;;;23.63;10.73;;;13.00;99.90;;;;;;5074879;28;20113;-77
2022/10/30 03:20:23;;;;;;;23.92;11.32;;;13.00;99.90;;;;;;5094004;28;20048;-77
2022/10/30 03:22:48;;;;;;;23.20;11.25;;;13.00;99.90;;;;;;5105834;28;20108;-78
2022/10/30 03:25:14;;;;;;;23.02;10.82;;;13.30;99.90;;;;;;5095366;28;20056;-77
2022/10/30 03:27:40;;;;;;;22.40;11.05;;;13.00;99.90;;;;;;5114001;28;20046;-77
2022/10/30 03:30:06;;;;;;;25.55;11.43;;;13.00;99.90;;;;;;5082438;28;20044;-77
2022/10/30 03:32:32;;;;;;;29.92;12.13;;;12.90;99.90;;;;;;5075413;28;20052;-78
2022/10/30 03:34:57;;;;;;;23.33;10.82;;;12.90;99.90;;;;;;5093812;28;20062;-77
2022/10/30 03:37:26;;;;;;;25.05;11.55;;;12.90;99.90;;;;;;5093671;28;20055;-78
2022/10/30 03:39:52;;;;;;;22.75;11.57;;;12.90;99.90;;;;;;5093726;28;20496;-78
2022/10/30 03:42:17;;;;;;;25.00;10.95;;;12.90;99.90;;;;;;5093325;28;20147;-76
2022/10/30 03:44:46;;;;;;;22.23;11.38;;;12.80;99.90;;;;;;5105617;28;20044;-76
2022/10/30 03:47:48;;;;;;;;;;;;;;;;;;;;;
2022/10/30 03:50:03;;;;;;;27.58;11.55;;;12.90;99.90;;;;;;5065724;28;20057;-78
2022/10/30 03:52:29;;;;;;;26.95;11.38;;;12.80;99.90;;;;;;5093889;28;20036;-77
2022/10/30 03:54:54;;;;;;;23.35;11.55;;;12.90;99.90;;;;;;5093059;28;20745;-77
2022/10/30 03:57:20;;;;;;;24.60;11.88;;;13.10;99.90;;;;;;5092783;28;20425;-77
2022/10/30 03:59:46;;;;;;;27.50;11.35;;;12.80;99.90;;;;;;5093401;28;20036;-77
2022/10/30 04:02:12;;;;;;;30.00;12.82;;;13.60;99.90;;;;;;5102980;28;20051;-77
2022/10/30 04:04:37;;;;;;;22.98;11.70;;;13.50;99.90;;;;;;5104310;28;20048;-78
2022/10/30 04:07:03;;;;;;;24.58;11.35;;;12.80;99.90;;;;;;5092866;28;20135;-77
2022/10/30 04:09:28;;;;;;;26.13;11.38;;;12.80;99.90;;;;;;5092587;28;20050;-78
2022/10/30 04:11:54;;;;;;;19.70;11.35;;;12.80;99.90;;;;;;5092390;28;20379;-78
2022/10/30 04:14:19;;;;;;;27.63;12.30;;;12.80;99.90;;;;;;5099310;28;20046;-78
2022/10/30 04:16:45;;;;;;;27.60;11.30;;;13.00;99.90;;;;;;5095107;28;20048;-78
2022/10/30 04:19:11;;;;;;;26.00;11.95;;;12.90;99.90;;;;;;5092163;28;20502;-77
2022/10/30 04:21:37;;;;;;;27.08;11.75;;;12.80;99.90;;;;;;5097783;28;20047;-78
2022/10/30 04:24:03;;;;;;;28.80;12.27;;;12.70;99.90;;;;;;5103109;28;20035;-77
2022/10/30 04:26:28;;;;;;;24.63;11.95;;;12.70;99.90;;;;;;5096410;28;20069;-76
2022/10/30 04:28:54;;;;;;;29.52;12.40;;;12.80;99.90;;;;;;5104115;28;20127;-77
2022/10/30 04:31:20;;;;;;;32.80;12.25;;;12.70;99.90;;;;;;5102879;28;20399;-78
2022/10/30 04:33:45;;;;;;;26.88;12.05;;;12.90;99.90;;;;;;5103907;28;20055;-77
2022/10/30 04:36:11;;;;;;;31.90;12.73;;;12.70;99.90;;;;;;5103084;28;20047;-77
2022/10/30 04:38:36;;;;;;;23.50;11.93;;;12.70;99.90;;;;;;5100382;28;20108;-77
2022/10/30 04:41:02;;;;;;;26.88;11.68;;;12.70;99.90;;;;;;5101335;28;20508;-76
2022/10/30 04:43:28;;;;;;;27.42;12.35;;;12.70;99.90;;;;;;5090686;28;20740;-77
2022/10/30 04:45:54;;;;;;;26.83;11.95;;;12.80;99.90;;;;;;5099295;28;20529;-77
2022/10/30 04:48:26;;;;;;;27.00;12.15;;;12.70;99.90;;;;;;5102625;28;20051;-77
2022/10/30 04:50:51;;;;;;;27.20;12.05;;;12.70;99.90;;;;;;5098707;28;20563;-77
2022/10/30 04:53:18;;;;;;;28.83;13.13;;;12.70;99.90;;;;;;5099803;28;20040;-77
2022/10/30 04:55:44;;;;;;;21.75;12.13;;;13.00;99.90;;;;;;5099908;28;20502;-77
2022/10/30 04:58:11;;;;;;;26.92;13.07;;;12.70;99.90;;;;;;5099847;28;20047;-77
2022/10/30 05:00:37;;;;;;;32.00;13.05;;;12.70;99.90;;;;;;5102468;28;20441;-78
2022/10/30 05:03:03;;;;;;;27.25;12.88;;;12.80;99.90;;;;;;5104113;28;20039;-77
2022/10/30 05:05:32;;;;;;;23.60;12.60;;;12.70;99.90;;;;;;5102761;28;20131;-77
2022/10/30 05:07:57;;;;;;;26.90;12.50;;;12.70;99.90;;;;;;5099766;28;20047;-77
2022/10/30 05:10:23;;;;;;;22.35;10.73;;;12.70;99.90;;;;;;5099994;28;20036;-77
2022/10/30 05:12:52;;;;;;;25.25;12.02;;;12.70;99.90;;;;;;5102643;28;20036;-78
2022/10/30 05:15:17;;;;;;;32.75;12.45;;;12.60;99.90;;;;;;5105089;28;20531;-78
2022/10/30 05:17:43;;;;;;;29.73;14.23;;;12.70;99.90;;;;;;5101126;28;20550;-78
2022/10/30 05:20:09;;;;;;;24.75;12.93;;;12.60;99.90;;;;;;5099931;28;20475;-78
2022/10/30 05:22:35;;;;;;;24.75;11.70;;;12.60;99.90;;;;;;5100022;28;20055;-78
2022/10/30 05:25:01;;;;;;;25.35;13.65;;;12.60;99.90;;;;;;5103197;28;20061;-78
2022/10/30 05:27:26;;;;;;;24.52;11.20;;;13.00;99.90;;;;;;5103154;28;20032;-78
2022/10/30 05:29:52;;;;;;;24.35;12.00;;;12.50;99.90;;;;;;5103144;28;20036;-78
2022/10/30 05:32:18;;;;;;;33.45;12.98;;;12.60;99.90;;;;;;5091724;28;20639;-78
2022/10/30 05:34:44;;;;;;;28.80;11.95;;;12.50;99.90;;;;;;5101223;28;20539;-78
2022/10/30 05:37:10;;;;;;;27.95;11.18;;;12.50;99.90;;;;;;5093542;28;20044;-78
2022/10/30 05:39:36;;;;;;;23.42;12.02;;;12.40;99.90;;;;;;5103011;28;20106;-77
2022/10/30 05:42:02;;;;;;;21.35;11.65;;;12.30;99.90;;;;;;5102150;28;20409;-77
2022/10/30 05:44:27;;;;;;;25.88;11.88;;;12.20;99.90;;;;;;5095980;28;20066;-78
2022/10/30 05:46:53;;;;;;;22.65;11.45;;;12.40;99.90;;;;;;5101438;28;20664;-77
2022/10/30 05:49:19;;;;;;;24.27;11.48;;;12.60;99.90;;;;;;5098935;28;20047;-77
2022/10/30 05:51:45;;;;;;;24.25;11.40;;;12.10;99.90;;;;;;5099042;28;20048;-76
2022/10/30 05:54:10;;;;;;;24.05;11.50;;;12.10;99.90;;;;;;5099647;28;20555;-77
2022/10/30 05:56:36;;;;;;;22.23;11.38;;;12.10;99.90;;;;;;5098709;28;20124;-77
2022/10/30 05:59:01;;;;;;;26.67;11.57;;;12.10;99.90;;;;;;5099253;28;20117;-77
2022/10/30 06:01:27;;;;;;;23.73;11.20;;;12.00;99.90;;;;;;5102399;28;20432;-77
2022/10/30 06:03:53;;;;;;;24.65;12.18;;;12.00;99.90;;;;;;5082873;28;20051;-75
2022/10/30 06:06:19;;;;;;;26.75;11.90;;;11.90;99.90;;;;;;5083714;28;20150;-77
2022/10/30 06:08:44;;;;;;;21.98;11.93;;;12.30;99.90;;;;;;5101924;28;20061;-77
2022/10/30 06:11:10;;;;;;;29.08;12.18;;;12.30;99.90;;;;;;5098878;28;20082;-77
2022/10/30 06:13:36;;;;;;;24.85;12.93;;;12.40;99.90;;;;;;5098252;28;20123;-77
2022/10/30 06:16:01;;;;;;;23.80;11.82;;;12.00;99.90;;;;;;5096816;28;20482;-78
2022/10/30 06:18:27;;;;;;;22.48;11.90;;;12.00;99.90;;;;;;5103404;28;20054;-77
2022/10/30 06:20:54;;;;;;;23.65;10.55;;;11.90;99.90;;;;;;5101752;28;20035;-76
2022/10/30 06:23:20;;;;;;;20.73;11.85;;;12.00;99.90;;;;;;5094295;28;20043;-78
2022/10/30 06:25:46;;;;;;;29.67;11.65;;;11.90;99.90;;;;;;5101942;28;20047;-78
2022/10/30 06:28:13;;;;;;;23.35;12.50;;;11.90;99.90;;;;;;5098062;28;20078;-78
2022/10/30 06:30:39;;;;;;;27.33;11.80;;;11.90;99.90;;;;;;5101072;28;20657;-77
2022/10/30 06:33:05;;;;;;;30.17;13.07;;;11.90;99.90;;;;;;5100844;28;20035;-78
2022/10/30 06:35:31;;;;;;;24.63;12.82;;;11.90;99.90;;;;;;5101798;28;20054;-77
2022/10/30 06:37:59;;;;;;;31.10;13.13;;;11.90;99.90;;;;;;5083082;28;20486;-77
2022/10/30 06:40:25;;;;;;;28.75;13.38;;;12.00;99.90;;;;;;5100793;28;20434;-77
2022/10/30 06:42:52;;;;;;;33.50;13.15;;;11.90;99.90;;;;;;5083279;28;20051;-77
2022/10/30 06:45:20;;;;;;;25.15;12.20;;;11.90;99.90;;;;;;5098414;28;20120;-75
2022/10/30 06:47:46;;;;;;;31.52;13.65;;;11.90;99.90;;;;;;5099896;28;20398;-77
2022/10/30 06:50:16;;;;;;;31.80;12.90;;;12.00;99.90;;;;;;5100078;28;20043;-77
2022/10/30 06:52:42;;;;;;;24.48;12.38;;;12.00;99.90;;;;;;5102738;28;20044;-77
2022/10/30 06:55:09;;;;;;;30.13;13.63;;;12.00;99.90;;;;;;5100472;28;20047;-77
2022/10/30 06:57:35;;;;;;;27.98;13.48;;;12.00;99.90;;;;;;5097913;28;20048;-77
2022/10/30 07:00:01;;;;;;;28.35;14.00;;;12.00;99.90;;;;;;5097628;28;20043;-77
2022/10/30 07:02:27;;;;;;;26.42;13.98;;;12.00;99.90;;;;;;5098795;28;20051;-77
2022/10/30 07:04:53;;;;;;;22.25;12.88;;;12.10;99.90;;;;;;5097792;28;20048;-77
2022/10/30 07:07:19;;;;;;;25.00;12.82;;;12.10;99.90;;;;;;5099323;28;20131;-77
2022/10/30 07:09:47;;;;;;;23.38;12.75;;;12.40;99.90;;;;;;5101301;28;20051;-77
2022/10/30 07:12:13;;;;;;;35.03;13.02;;;12.10;99.90;;;;;;5092626;28;20048;-76
2022/10/30 07:14:38;;;;;;;28.13;13.43;;;12.10;99.90;;;;;;5100996;28;20720;-77
2022/10/30 07:17:04;;;;;;;31.08;12.40;;;12.10;99.90;;;;;;5101704;28;20043;-77
2022/10/30 07:19:30;;;;;;;27.25;14.60;;;12.10;99.90;;;;;;5100137;28;20517;-77
2022/10/30 07:21:56;;;;;;;31.90;13.52;;;12.30;99.90;;;;;;5101382;28;20121;-77
2022/10/30 07:24:21;;;;;;;28.55;12.98;;;12.50;99.90;;;;;;5098488;28;20071;-77
2022/10/30 07:26:47;;;;;;;28.02;12.85;;;12.10;99.90;;;;;;5097532;28;20075;-77
2022/10/30 07:29:13;;;;;;;25.13;12.38;;;12.10;99.90;;;;;;5097682;28;20036;-77
2022/10/30 07:31:38;;;;;;;26.35;13.10;;;12.20;99.90;;;;;;5099861;28;20572;-76
2022/10/30 07:34:04;;;;;;;29.55;14.73;;;12.20;99.90;;;;;;5101373;28;20114;-77
2022/10/30 07:36:30;;;;;;;24.98;12.60;;;12.20;99.90;;;;;;5092885;28;20040;-77
2022/10/30 07:38:55;;;;;;;26.13;12.27;;;12.20;99.90;;;;;;5096702;28;20047;-78
2022/10/30 07:41:21;;;;;;;28.70;13.60;;;12.30;99.90;;;;;;5097522;28;20028;-77
2022/10/30 07:43:47;;;;;;;22.08;13.27;;;12.30;99.90;;;;;;5092749;28;20071;-77
2022/10/30 07:46:13;;;;;;;30.45;13.95;;;12.30;99.90;;;;;;5100508;28;20079;-78
2022/10/30 07:48:39;;;;;;;28.98;13.13;;;12.40;99.90;;;;;;5099094;28;20062;-77
2022/10/30 07:51:06;;;;;;;28.10;14.73;;;12.40;99.90;;;;;;5097820;28;20044;-77
2022/10/30 07:53:32;;;;;;;32.88;14.52;;;12.50;99.90;;;;;;5101640;28;20028;-76
2022/10/30 07:55:57;;;;;;;30.52;13.70;;;12.50;99.90;;;;;;5104662;28;20611;-77
2022/10/30 07:58:23;;;;;;;26.95;14.15;;;12.50;99.90;;;;;;5104932;28;20146;-78
2022/10/30 08:00:49;;;;;;;33.17;14.73;;;12.60;99.90;;;;;;5100535;28;20058;-76
2022/10/30 08:03:15;;;;;;;28.52;14.35;;;12.60;99.90;;;;;;5101021;28;20032;-78
2022/10/30 08:05:41;;;;;;;27.58;14.48;;;12.70;99.90;;;;;;5102019;28;20054;-78
2022/10/30 08:08:07;;;;;;;39.42;15.52;;;12.80;99.90;;;;;;5104665;28;20031;-77
2022/10/30 08:10:34;;;;;;;29.48;13.98;;;12.90;99.90;;;;;;5104299;28;20036;-76
2022/10/30 08:12:59;;;;;;;33.75;15.35;;;13.20;99.90;;;;;;5100966;28;20066;-77
2022/10/30 08:15:25;;;;;;;29.15;14.73;;;13.30;99.90;;;;;;5100917;28;20085;-77
2022/10/30 08:17:52;;;;;;;36.03;15.23;;;13.00;99.90;;;;;;5097562;28;20048;-77
2022/10/30 08:20:20;;;;;;;40.38;15.18;;;13.50;99.90;;;;;;5100305;28;20032;-78
2022/10/30 08:22:50;;;;;;;31.90;15.05;;;13.50;99.90;;;;;;5105243;28;20101;-77
2022/10/30 08:25:21;;;;;;;28.48;15.07;;;13.20;99.90;;;;;;5100115;28;20111;-75
2022/10/30 08:28:01;;;;;;;26.75;15.15;;;13.30;99.90;;;;;;5101050;28;20087;-76
2022/10/30 08:30:41;;;;;;;32.67;14.27;;;13.40;99.90;;;;;;5104618;28;20612;-77
2022/10/30 08:33:12;;;;;;;30.52;16.40;;;14.10;99.90;;;;;;5103116;28;20078;-77
2022/10/30 08:35:38;;;;;;;34.00;14.23;;;13.60;99.90;;;;;;5204340;22;20058;-77
2022/10/30 08:38:03;;;;;;;29.02;15.02;;;13.60;99.90;;;;;;5122189;27;20044;-78
2022/10/30 08:40:29;;;;;;;32.50;14.57;;;13.70;99.90;;;;;;5123798;27;20037;-77
2022/10/30 08:42:56;;;;;;;30.02;14.32;;;14.00;99.90;;;;;;5122338;27;20065;-77
2022/10/30 08:45:23;;;;;;;31.25;15.18;;;14.10;99.90;;;;;;5094055;28;20032;-77
2022/10/30 08:47:57;;;;;;;31.08;14.73;;;14.50;99.90;;;;;;5120498;27;20047;-76
2022/10/30 08:50:22;;;;;;;39.00;14.60;;;14.80;99.90;;;;;;5124167;27;20114;-77
2022/10/30 08:52:48;;;;;;;26.25;14.93;;;14.30;99.90;;;;;;5115206;27;20130;-78
2022/10/30 08:55:13;;;;;;;29.30;15.93;;;14.90;99.90;;;;;;5110742;28;20055;-77
2022/10/30 08:57:39;;;;;;;24.60;14.70;;;14.70;99.90;;;;;;5124933;27;20081;-77
2022/10/30 09:00:06;;;;;;;29.58;14.43;;;14.90;99.90;;;;;;5119352;27;20073;-77
2022/10/30 09:02:33;;;;;;;31.75;15.13;;;14.90;99.90;;;;;;5122706;27;20100;-78
2022/10/30 09:04:58;;;;;;;35.85;14.85;;;15.40;99.90;;;;;;5123382;27;20035;-76
2022/10/30 09:07:24;;;;;;;28.65;13.65;;;15.40;99.90;;;;;;5120539;27;20097;-78
2022/10/30 09:09:49;;;;;;;30.48;14.75;;;15.40;99.90;;;;;;5121047;27;20035;-77
2022/10/30 09:12:15;;;;;;;27.30;14.02;;;16.00;99.90;;;;;;5096070;28;20066;-78
2022/10/30 09:14:41;;;;;;;30.33;13.80;;;15.70;99.90;;;;;;5112289;28;20039;-78
2022/10/30 09:17:07;;;;;;;24.25;12.65;;;15.90;99.90;;;;;;5121800;27;20047;-78
2022/10/30 09:19:33;;;;;;;31.05;14.00;;;16.40;99.90;;;;;;5117756;27;20100;-76
2022/10/30 09:21:58;;;;;;;22.00;12.85;;;16.50;99.90;;;;;;5123181;27;20104;-77
2022/10/30 09:24:24;;;;;;;24.52;12.77;;;16.40;99.90;;;;;;5111406;28;20125;-77
2022/10/30 09:26:50;;;;;;;35.08;13.60;;;16.80;99.90;;;;;;5104448;28;20055;-78
2022/10/30 09:29:15;;;;;;;26.80;13.35;;;16.70;99.90;;;;;;5119685;27;20047;-78
2022/10/30 09:31:41;;;;;;;26.50;13.57;;;16.90;99.90;;;;;;5119487;27;20513;-78
2022/10/30 09:34:07;;;;;;;28.02;12.55;;;17.00;99.90;;;;;;5118774;27;20035;-78
2022/10/30 09:36:32;;;;;;;23.98;12.18;;;17.10;99.90;;;;;;5119587;27;20066;-78
2022/10/30 09:38:58;;;;;;;31.42;12.43;;;17.40;99.90;;;;;;5091939;28;20172;-77
2022/10/30 09:41:52;;;;;;;21.45;12.40;;;17.40;99.90;;;;;;5119278;27;20043;-75
2022/10/30 09:44:36;;;;;;;26.35;12.75;;;17.70;99.90;;;;;;5095319;27;20054;-76
2022/10/30 09:47:23;;;;;;;27.80;12.75;;;17.70;99.90;;;;;;5121634;27;20039;-77
2022/10/30 09:50:10;;;;;;;25.40;11.43;;;17.90;99.90;;;;;;5119822;27;20498;-75
2022/10/30 09:52:44;;;;;;;26.58;12.48;;;17.90;99.90;;;;;;5119467;27;20127;-75
2022/10/30 09:55:13;;;;;;;25.00;12.82;;;17.90;99.90;;;;;;5120262;27;20047;-77
2022/10/30 09:58:04;;;;;;;25.42;12.43;;;18.00;99.90;;;;;;5122706;27;20086;-76
2022/10/30 10:03:47;;;;;;;28.50;11.90;;;18.00;99.90;;;;;;5098531;28;20048;-75
2022/10/30 10:06:17;;;;;;;20.88;11.18;;;18.60;99.90;;;;;;5099989;28;20093;-76
2022/10/30 10:08:56;;;;;;;27.30;13.00;;;18.40;99.90;;;;;;5101635;28;20123;-76
2022/10/30 10:11:35;;;;;;;21.60;11.18;;;18.50;99.90;;;;;;5099423;28;21602;-78
2022/10/30 10:14:25;;;;;;;25.20;10.50;;;18.60;99.90;;;;;;5105664;28;20039;-77
2022/10/30 10:16:56;;;;;;;30.58;11.70;;;18.60;99.90;;;;;;5079630;28;20059;-76
2022/10/30 10:19:29;;;;;;;29.40;11.77;;;18.70;99.90;;;;;;5108204;28;20044;-76
2022/10/30 10:22:01;;;;;;;22.17;10.65;;;18.90;99.90;;;;;;5090278;28;20043;-77
2022/10/30 10:24:46;;;;;;;28.65;11.70;;;19.20;99.90;;;;;;5110608;28;20379;-77
2022/10/30 10:27:21;;;;;;;27.15;11.15;;;19.10;99.90;;;;;;5092361;28;20055;-76
2022/10/30 10:29:46;;;;;;;;;;;19.30;99.90;;;;;;5092389;28;20051;-77
2022/10/30 10:32:29;;;;;;;27.27;11.05;;;19.50;99.90;;;;;;5110031;28;19920;-77
2022/10/30 10:35:19;;;;;;;37.22;11.82;;;19.70;99.90;;;;;;5110363;28;20043;-77
2022/10/30 10:37:48;;;;;;;31.95;10.63;;;19.70;99.90;;;;;;5110633;28;20048;-77
2022/10/30 10:40:43;;;;;;;23.88;10.02;;;19.90;99.90;;;;;;5109848;28;20061;-78
2022/10/30 10:43:13;;;;;;;;;;;20.00;99.90;;;;;;5110816;28;20051;-78
2022/10/30 10:45:56;;;;;;;26.65;11.07;;;20.00;99.90;;;;;;5110332;28;19981;-77
2022/10/30 10:48:40;;;;;;;22.45;10.85;;;20.00;99.90;;;;;;5109834;28;20127;-76
2022/10/30 10:51:19;;;;;;;25.77;10.40;;;20.10;99.90;;;;;;5110338;28;20127;-77
2022/10/30 10:53:50;;;;;;;21.95;10.68;;;20.10;99.90;;;;;;5110196;28;20079;-77
2022/10/30 10:56:17;;;;;;;22.92;10.07;;;20.20;99.90;;;;;;5110820;28;20077;-77
2022/10/30 10:58:55;;;;;;;20.92;10.07;;;20.30;99.90;;;;;;5110317;28;20057;-76
2022/10/30 11:01:28;;;;;;;24.25;10.13;;;20.50;99.90;;;;;;5109844;28;20122;-77
2022/10/30 11:04:02;;;;;;;26.42;10.68;;;20.60;99.90;;;;;;5110432;28;20055;-77
2022/10/30 11:06:33;;;;;;;;;;;20.70;99.90;;;;;;5111174;28;20039;-77
2022/10/30 11:09:19;;;;;;;21.27;9.50;;;20.60;99.90;;;;;;5109863;28;19923;-76
2022/10/30 11:11:49;;;;;;;21.58;9.73;;;20.70;99.90;;;;;;5091885;28;20042;-77
2022/10/30 11:14:18;;;;;;;20.52;9.70;;;20.70;99.90;;;;;;5110105;28;20043;-77
2022/10/30 11:16:57;;;;;;;23.25;9.75;;;20.70;99.90;;;;;;5109696;28;20047;-77
2022/10/30 11:19:23;;;;;;;20.33;9.43;;;20.90;99.90;;;;;;5091610;28;20531;-78
2022/10/30 11:21:52;;;;;;;26.73;9.27;;;21.00;99.90;;;;;;5110159;28;20040;-77
2022/10/30 11:24:33;;;;;;;18.40;8.43;;;21.20;99.90;;;;;;5109636;28;20083;-76
2022/10/30 11:27:16;;;;;;;19.77;8.93;;;21.10;99.90;;;;;;5111294;28;20482;-77
2022/10/30 11:29:51;;;;;;;20.95;8.35;;;21.00;99.90;;;;;;5095482;28;20044;-77
2022/10/30 11:32:21;;;;;;;17.55;8.57;;;21.10;99.90;;;;;;5114123;28;20039;-77
2022/10/30 11:35:11;;;;;;;18.20;9.57;;;21.10;99.90;;;;;;5113921;28;20073;-77
2022/10/30 11:37:39;;;;;;;19.90;8.02;;;21.10;99.90;;;;;;5113679;28;20443;-78
2022/10/30 11:40:08;;;;;;;18.13;9.00;;;21.20;99.90;;;;;;5113577;28;20114;-77
2022/10/30 11:42:35;;;;;;;16.75;7.82;;;21.30;99.90;;;;;;5113725;28;20055;-76
2022/10/30 11:45:03;;;;;;;24.63;8.18;;;21.30;99.90;;;;;;5113444;28;20035;-78
2022/10/30 11:47:34;;;;;;;14.32;6.10;;;21.20;99.90;;;;;;5114013;28;20044;-77
2022/10/30 11:50:21;;;;;;;18.15;7.07;;;21.10;99.90;;;;;;5113068;28;20394;-77
2022/10/30 11:52:51;;;;;;;18.30;7.80;;;21.20;99.90;;;;;;5112919;28;20118;-74
2022/10/30 11:55:26;;;;;;;15.10;6.30;;;21.20;99.90;;;;;;5113688;28;20050;-74
2022/10/30 11:57:55;;;;;;;21.98;7.50;;;21.10;99.90;;;;;;5113356;28;20512;-75
2022/10/30 12:00:24;;;;;;;20.10;7.13;;;21.30;99.90;;;;;;5112598;28;20039;-75
2022/10/30 12:02:52;;;;;;;23.33;7.40;;;21.30;99.90;;;;;;5078318;28;20087;-75
2022/10/30 12:05:39;;;;;;;24.13;7.75;;;21.30;99.90;;;;;;5113443;28;20077;-75
2022/10/30 12:08:07;;;;;;;14.20;6.93;;;21.30;99.90;;;;;;5112658;28;20081;-75
2022/10/30 12:10:52;;;;;;;19.83;6.70;;;21.30;99.90;;;;;;5095361;28;20049;-75
2022/10/30 12:13:19;;;;;;;19.48;7.47;;;21.40;99.90;;;;;;5095390;28;20210;-77
2022/10/30 12:15:48;;;;;;;17.35;7.03;;;21.50;99.90;;;;;;5113426;28;20067;-77
2022/10/30 12:18:25;;;;;;;20.45;7.38;;;21.40;99.90;;;;;;5113350;28;20410;-78
2022/10/30 12:20:56;;;;;;;28.10;7.78;;;21.50;99.90;;;;;;5112658;28;20502;-76
2022/10/30 12:23:25;;;;;;;17.33;7.07;;;21.40;99.90;;;;;;5112728;28;20040;-77
2022/10/30 12:25:57;;;;;;;19.00;8.13;;;21.30;99.90;;;;;;5113273;28;20035;-77
2022/10/30 12:28:25;;;;;;;23.58;7.68;;;21.30;99.90;;;;;;5094400;28;20546;-77
2022/10/30 12:31:01;;;;;;;25.38;8.10;;;21.30;99.90;;;;;;5112239;28;20668;-77
2022/10/30 12:33:45;;;;;;;20.90;7.50;;;21.40;99.90;;;;;;5094514;28;20094;-77
2022/10/30 12:36:21;;;;;;;17.02;8.00;;;21.50;99.90;;;;;;5112873;28;20173;-77
2022/10/30 12:38:50;;;;;;;18.80;7.43;;;21.40;99.90;;;;;;5111598;28;20048;-77
2022/10/30 12:41:24;;;;;;;24.20;7.38;;;21.20;99.90;;;;;;5112716;28;20051;-77
2022/10/30 12:44:15;;;;;;;20.08;6.95;;;21.30;99.90;;;;;;5112540;28;20047;-77